sensor_id;sensor_type;location;lat;lon;timestamp;temperature;humidity
484;DHT22;228;48.922;12.198;2023-04-03T00:01:02;7.40;59.10
484;DHT22;228;48.922;12.198;2023-04-03T00:03:28;7.50;59.00
484;DHT22;228;48.922;12.198;2023-04-03T00:05:55;7.60;58.70
484;DHT22;228;48.922;12.198;2023-04-03T00:08:21;7.60;58.60
484;DHT22;228;48.922;12.198;2023-04-03T00:10:47;6.90;59.60
484;DHT22;228;48.922;12.198;2023-04-03T00:13:13;7.10;60.20
484;DHT22;228;48.922;12.198;2023-04-03T00:15:40;7.40;59.70
484;DHT22;228;48.922;12.198;2023-04-03T00:18:06;7.40;59.40
484;DHT22;228;48.922;12.198;2023-04-03T00:20:33;7.50;59.50
484;DHT22;228;48.922;12.198;2023-04-03T00:23:00;6.90;59.70
484;DHT22;228;48.922;12.198;2023-04-03T00:25:27;6.50;61.00
484;DHT22;228;48.922;12.198;2023-04-03T00:27:53;6.50;62.10
484;DHT22;228;48.922;12.198;2023-04-03T00:30:21;6.40;62.00
484;DHT22;228;48.922;12.198;2023-04-03T00:32:50;6.00;63.10
484;DHT22;228;48.922;12.198;2023-04-03T00:35:18;6.20;63.10
484;DHT22;228;48.922;12.198;2023-04-03T00:37:46;6.40;62.70
484;DHT22;228;48.922;12.198;2023-04-03T00:40:14;6.60;61.90
484;DHT22;228;48.922;12.198;2023-04-03T00:42:43;6.70;62.40
484;DHT22;228;48.922;12.198;2023-04-03T00:47:36;6.80;60.80
484;DHT22;228;48.922;12.198;2023-04-03T00:50:05;6.60;60.30
484;DHT22;228;48.922;12.198;2023-04-03T00:52:32;6.30;62.10
484;DHT22;228;48.922;12.198;2023-04-03T00:55:03;6.20;62.00
484;DHT22;228;48.922;12.198;2023-04-03T00:57:31;6.30;62.60
484;DHT22;228;48.922;12.198;2023-04-03T01:00:03;6.70;61.60
484;DHT22;228;48.922;12.198;2023-04-03T01:02:38;6.40;62.00
484;DHT22;228;48.922;12.198;2023-04-03T01:05:08;6.60;61.40
484;DHT22;228;48.922;12.198;2023-04-03T01:07:34;6.90;61.20
484;DHT22;228;48.922;12.198;2023-04-03T01:10:10;7.20;60.50
484;DHT22;228;48.922;12.198;2023-04-03T01:12:42;7.30;59.90
484;DHT22;228;48.922;12.198;2023-04-03T01:15:16;7.50;59.50
484;DHT22;228;48.922;12.198;2023-04-03T01:17:55;7.30;59.70
484;DHT22;228;48.922;12.198;2023-04-03T01:28:32;7.90;58.20
484;DHT22;228;48.922;12.198;2023-04-03T01:31:31;8.00;58.20
484;DHT22;228;48.922;12.198;2023-04-03T01:33:56;7.90;59.00
484;DHT22;228;48.922;12.198;2023-04-03T01:36:29;8.10;58.30
484;DHT22;228;48.922;12.198;2023-04-03T01:38:58;7.60;58.30
484;DHT22;228;48.922;12.198;2023-04-03T01:41:26;7.30;59.80
484;DHT22;228;48.922;12.198;2023-04-03T01:43:58;7.20;60.10
484;DHT22;228;48.922;12.198;2023-04-03T01:46:24;6.80;61.20
484;DHT22;228;48.922;12.198;2023-04-03T01:48:50;6.80;61.70
484;DHT22;228;48.922;12.198;2023-04-03T01:51:16;6.60;62.60
484;DHT22;228;48.922;12.198;2023-04-03T01:53:42;7.00;61.70
484;DHT22;228;48.922;12.198;2023-04-03T01:56:08;7.40;59.80
484;DHT22;228;48.922;12.198;2023-04-03T01:58:35;7.80;59.50
484;DHT22;228;48.922;12.198;2023-04-03T02:01:02;8.00;58.50
484;DHT22;228;48.922;12.198;2023-04-03T02:03:28;8.10;57.70
484;DHT22;228;48.922;12.198;2023-04-03T02:05:54;8.00;57.50
484;DHT22;228;48.922;12.198;2023-04-03T02:08:20;7.60;58.30
484;DHT22;228;48.922;12.198;2023-04-03T02:10:48;6.90;59.60
484;DHT22;228;48.922;12.198;2023-04-03T02:13:15;7.00;60.80
484;DHT22;228;48.922;12.198;2023-04-03T02:15:41;6.90;60.70
484;DHT22;228;48.922;12.198;2023-04-03T02:18:08;6.80;61.60
484;DHT22;228;48.922;12.198;2023-04-03T02:20:35;6.70;61.50
484;DHT22;228;48.922;12.198;2023-04-03T02:23:01;6.70;62.00
484;DHT22;228;48.922;12.198;2023-04-03T02:25:28;6.30;63.20
484;DHT22;228;48.922;12.198;2023-04-03T02:27:55;6.20;63.80
484;DHT22;228;48.922;12.198;2023-04-03T02:30:21;6.30;63.80
484;DHT22;228;48.922;12.198;2023-04-03T02:32:48;6.20;63.70
484;DHT22;228;48.922;12.198;2023-04-03T02:35:14;6.20;63.60
484;DHT22;228;48.922;12.198;2023-04-03T02:37:40;6.50;63.90
484;DHT22;228;48.922;12.198;2023-04-03T02:40:07;6.40;64.10
484;DHT22;228;48.922;12.198;2023-04-03T02:42:34;6.40;64.40
484;DHT22;228;48.922;12.198;2023-04-03T02:45:02;6.30;64.30
484;DHT22;228;48.922;12.198;2023-04-03T02:47:29;6.30;64.20
484;DHT22;228;48.922;12.198;2023-04-03T02:49:55;6.00;64.80
484;DHT22;228;48.922;12.198;2023-04-03T02:52:21;5.80;65.10
484;DHT22;228;48.922;12.198;2023-04-03T02:54:48;6.00;66.00
484;DHT22;228;48.922;12.198;2023-04-03T02:57:14;5.80;65.40
484;DHT22;228;48.922;12.198;2023-04-03T02:59:40;5.90;66.10
484;DHT22;228;48.922;12.198;2023-04-03T03:02:08;5.70;66.70
484;DHT22;228;48.922;12.198;2023-04-03T03:04:35;5.60;66.70
484;DHT22;228;48.922;12.198;2023-04-03T03:07:01;5.80;66.50
484;DHT22;228;48.922;12.198;2023-04-03T03:09:28;5.80;66.00
484;DHT22;228;48.922;12.198;2023-04-03T03:11:55;5.90;66.00
484;DHT22;228;48.922;12.198;2023-04-03T03:14:23;5.70;66.30
484;DHT22;228;48.922;12.198;2023-04-03T03:16:49;5.90;67.10
484;DHT22;228;48.922;12.198;2023-04-03T03:19:15;6.00;65.30
484;DHT22;228;48.922;12.198;2023-04-03T03:21:41;6.20;64.60
484;DHT22;228;48.922;12.198;2023-04-03T03:24:07;6.40;64.40
484;DHT22;228;48.922;12.198;2023-04-03T03:26:33;6.40;64.10
484;DHT22;228;48.922;12.198;2023-04-03T03:29:02;5.90;65.60
484;DHT22;228;48.922;12.198;2023-04-03T03:31:28;6.00;66.50
484;DHT22;228;48.922;12.198;2023-04-03T03:33:55;5.80;66.00
484;DHT22;228;48.922;12.198;2023-04-03T03:36:22;5.90;66.50
484;DHT22;228;48.922;12.198;2023-04-03T03:38:48;6.20;65.80
484;DHT22;228;48.922;12.198;2023-04-03T03:41:14;6.10;65.70
484;DHT22;228;48.922;12.198;2023-04-03T03:43:42;6.10;65.40
484;DHT22;228;48.922;12.198;2023-04-03T03:46:08;6.20;65.60
484;DHT22;228;48.922;12.198;2023-04-03T03:48:34;6.10;65.10
484;DHT22;228;48.922;12.198;2023-04-03T03:51:00;6.00;65.80
484;DHT22;228;48.922;12.198;2023-04-03T03:53:30;5.90;66.10
484;DHT22;228;48.922;12.198;2023-04-03T03:56:01;5.80;66.90
484;DHT22;228;48.922;12.198;2023-04-03T03:58:29;5.90;66.80
484;DHT22;228;48.922;12.198;2023-04-03T04:00:56;5.80;66.10
484;DHT22;228;48.922;12.198;2023-04-03T04:03:22;5.60;67.00
484;DHT22;228;48.922;12.198;2023-04-03T04:05:50;5.90;67.00
484;DHT22;228;48.922;12.198;2023-04-03T04:08:16;6.20;66.00
484;DHT22;228;48.922;12.198;2023-04-03T04:10:44;6.10;66.00
484;DHT22;228;48.922;12.198;2023-04-03T04:13:11;6.10;65.60
484;DHT22;228;48.922;12.198;2023-04-03T04:15:38;5.80;65.90
484;DHT22;228;48.922;12.198;2023-04-03T04:18:04;5.70;66.90
484;DHT22;228;48.922;12.198;2023-04-03T04:20:31;5.30;67.90
484;DHT22;228;48.922;12.198;2023-04-03T04:22:57;5.40;68.50
484;DHT22;228;48.922;12.198;2023-04-03T04:25:25;5.40;67.90
484;DHT22;228;48.922;12.198;2023-04-03T04:27:51;5.70;67.60
484;DHT22;228;48.922;12.198;2023-04-03T04:30:18;5.80;67.10
484;DHT22;228;48.922;12.198;2023-04-03T04:32:47;5.60;67.30
484;DHT22;228;48.922;12.198;2023-04-03T04:35:13;5.70;67.00
484;DHT22;228;48.922;12.198;2023-04-03T04:37:42;5.90;66.60
484;DHT22;228;48.922;12.198;2023-04-03T04:40:08;6.00;66.30
484;DHT22;228;48.922;12.198;2023-04-03T04:42:35;5.80;66.60
484;DHT22;228;48.922;12.198;2023-04-03T04:45:01;5.70;67.20
484;DHT22;228;48.922;12.198;2023-04-03T04:47:28;5.70;66.90
484;DHT22;228;48.922;12.198;2023-04-03T04:49:55;5.70;67.30
484;DHT22;228;48.922;12.198;2023-04-03T04:52:21;5.90;67.00
484;DHT22;228;48.922;12.198;2023-04-03T04:54:48;6.10;66.40
484;DHT22;228;48.922;12.198;2023-04-03T04:57:14;6.00;66.10
484;DHT22;228;48.922;12.198;2023-04-03T04:59:41;5.70;66.00
484;DHT22;228;48.922;12.198;2023-04-03T05:02:07;5.40;67.00
484;DHT22;228;48.922;12.198;2023-04-03T05:04:34;5.60;67.70
484;DHT22;228;48.922;12.198;2023-04-03T05:07:06;6.10;66.50
484;DHT22;228;48.922;12.198;2023-04-03T05:09:35;6.00;65.60
484;DHT22;228;48.922;12.198;2023-04-03T05:12:01;5.80;66.20
484;DHT22;228;48.922;12.198;2023-04-03T05:14:33;6.00;66.70
484;DHT22;228;48.922;12.198;2023-04-03T05:17:03;5.80;65.90
484;DHT22;228;48.922;12.198;2023-04-03T05:19:32;5.90;66.80
484;DHT22;228;48.922;12.198;2023-04-03T05:21:58;6.40;65.40
484;DHT22;228;48.922;12.198;2023-04-03T05:24:25;6.30;65.00
484;DHT22;228;48.922;12.198;2023-04-03T05:26:51;6.40;65.00
484;DHT22;228;48.922;12.198;2023-04-03T05:29:17;6.60;64.00
484;DHT22;228;48.922;12.198;2023-04-03T05:31:44;6.50;64.30
484;DHT22;228;48.922;12.198;2023-04-03T05:34:12;6.10;65.60
484;DHT22;228;48.922;12.198;2023-04-03T05:36:39;5.80;66.40
484;DHT22;228;48.922;12.198;2023-04-03T05:39:08;5.90;65.70
484;DHT22;228;48.922;12.198;2023-04-03T05:41:37;5.90;66.70
484;DHT22;228;48.922;12.198;2023-04-03T05:44:03;5.70;65.80
484;DHT22;228;48.922;12.198;2023-04-03T05:46:29;5.70;66.00
484;DHT22;228;48.922;12.198;2023-04-03T05:48:57;6.20;66.10
484;DHT22;228;48.922;12.198;2023-04-03T05:51:34;6.00;64.60
484;DHT22;228;48.922;12.198;2023-04-03T05:54:26;6.10;65.90
484;DHT22;228;48.922;12.198;2023-04-03T05:57:00;6.50;64.90
484;DHT22;228;48.922;12.198;2023-04-03T05:59:27;6.70;63.10
484;DHT22;228;48.922;12.198;2023-04-03T06:01:55;6.80;63.50
484;DHT22;228;48.922;12.198;2023-04-03T06:04:21;6.30;63.70
484;DHT22;228;48.922;12.198;2023-04-03T06:06:56;6.40;63.40
484;DHT22;228;48.922;12.198;2023-04-03T06:09:28;6.60;62.50
484;DHT22;228;48.922;12.198;2023-04-03T06:11:57;6.50;61.70
484;DHT22;228;48.922;12.198;2023-04-03T06:14:25;6.00;63.50
484;DHT22;228;48.922;12.198;2023-04-03T06:16:52;5.70;63.40
484;DHT22;228;48.922;12.198;2023-04-03T06:19:19;5.90;63.40
484;DHT22;228;48.922;12.198;2023-04-03T06:21:49;6.00;64.30
484;DHT22;228;48.922;12.198;2023-04-03T06:24:17;6.00;63.40
484;DHT22;228;48.922;12.198;2023-04-03T06:26:43;5.70;64.30
484;DHT22;228;48.922;12.198;2023-04-03T06:29:10;5.60;65.00
484;DHT22;228;48.922;12.198;2023-04-03T06:31:36;5.50;64.00
484;DHT22;228;48.922;12.198;2023-04-03T06:34:03;5.60;64.70
484;DHT22;228;48.922;12.198;2023-04-03T06:36:29;5.50;65.10
484;DHT22;228;48.922;12.198;2023-04-03T06:38:55;5.50;64.70
484;DHT22;228;48.922;12.198;2023-04-03T06:41:21;5.40;63.90
484;DHT22;228;48.922;12.198;2023-04-03T06:43:48;5.30;64.30
484;DHT22;228;48.922;12.198;2023-04-03T06:46:19;5.40;64.80
484;DHT22;228;48.922;12.198;2023-04-03T06:48:51;5.90;63.50
484;DHT22;228;48.922;12.198;2023-04-03T06:51:28;6.10;62.50
484;DHT22;228;48.922;12.198;2023-04-03T06:53:57;6.30;62.20
484;DHT22;228;48.922;12.198;2023-04-03T06:56:25;6.20;61.40
484;DHT22;228;48.922;12.198;2023-04-03T06:58:52;6.10;63.00
484;DHT22;228;48.922;12.198;2023-04-03T07:01:27;5.90;62.80
484;DHT22;228;48.922;12.198;2023-04-03T07:03:55;5.60;61.60
484;DHT22;228;48.922;12.198;2023-04-03T07:06:21;5.70;63.00
484;DHT22;228;48.922;12.198;2023-04-03T07:08:48;5.70;61.70
484;DHT22;228;48.922;12.198;2023-04-03T07:11:15;5.90;62.10
484;DHT22;228;48.922;12.198;2023-04-03T07:13:41;5.80;60.80
484;DHT22;228;48.922;12.198;2023-04-03T07:16:08;5.80;60.40
484;DHT22;228;48.922;12.198;2023-04-03T07:18:35;6.00;60.90
484;DHT22;228;48.922;12.198;2023-04-03T07:21:01;6.10;59.40
484;DHT22;228;48.922;12.198;2023-04-03T07:23:28;6.30;59.40
484;DHT22;228;48.922;12.198;2023-04-03T07:25:54;5.90;59.50
484;DHT22;228;48.922;12.198;2023-04-03T07:28:21;6.30;60.90
484;DHT22;228;48.922;12.198;2023-04-03T07:30:53;6.10;60.40
484;DHT22;228;48.922;12.198;2023-04-03T07:33:25;6.70;59.90
484;DHT22;228;48.922;12.198;2023-04-03T07:35:51;6.60;60.70
484;DHT22;228;48.922;12.198;2023-04-03T07:38:18;6.40;61.00
484;DHT22;228;48.922;12.198;2023-04-03T07:40:48;6.40;61.30
484;DHT22;228;48.922;12.198;2023-04-03T07:43:16;6.30;60.80
484;DHT22;228;48.922;12.198;2023-04-03T07:45:43;7.00;60.80
484;DHT22;228;48.922;12.198;2023-04-03T07:48:13;7.50;59.10
484;DHT22;228;48.922;12.198;2023-04-03T07:50:42;7.30;58.60
484;DHT22;228;48.922;12.198;2023-04-03T07:53:09;7.10;58.20
484;DHT22;228;48.922;12.198;2023-04-03T07:55:36;7.10;59.10
484;DHT22;228;48.922;12.198;2023-04-03T07:58:13;7.00;59.30
484;DHT22;228;48.922;12.198;2023-04-03T08:00:41;7.00;58.90
484;DHT22;228;48.922;12.198;2023-04-03T08:03:09;7.40;58.30
484;DHT22;228;48.922;12.198;2023-04-03T08:05:38;7.90;56.90
484;DHT22;228;48.922;12.198;2023-04-03T08:08:06;7.80;57.10
484;DHT22;228;48.922;12.198;2023-04-03T08:10:32;7.50;57.30
484;DHT22;228;48.922;12.198;2023-04-03T08:12:59;7.30;58.80
484;DHT22;228;48.922;12.198;2023-04-03T08:15:25;7.60;58.30
484;DHT22;228;48.922;12.198;2023-04-03T08:17:53;7.70;56.50
484;DHT22;228;48.922;12.198;2023-04-03T08:20:19;7.60;56.50
484;DHT22;228;48.922;12.198;2023-04-03T08:22:45;7.50;57.40
484;DHT22;228;48.922;12.198;2023-04-03T08:25:12;7.60;57.00
484;DHT22;228;48.922;12.198;2023-04-03T08:27:38;7.60;54.90
484;DHT22;228;48.922;12.198;2023-04-03T08:30:05;7.10;55.50
484;DHT22;228;48.922;12.198;2023-04-03T08:32:33;7.20;56.60
484;DHT22;228;48.922;12.198;2023-04-03T08:35:00;7.50;54.50
484;DHT22;228;48.922;12.198;2023-04-03T08:37:26;7.60;53.60
484;DHT22;228;48.922;12.198;2023-04-03T08:39:52;7.70;53.10
484;DHT22;228;48.922;12.198;2023-04-03T08:45:42;7.70;52.90
484;DHT22;228;48.922;12.198;2023-04-03T08:50:53;7.80;51.80
484;DHT22;228;48.922;12.198;2023-04-03T08:53:25;7.80;49.20
484;DHT22;228;48.922;12.198;2023-04-03T08:55:55;7.90;47.40
484;DHT22;228;48.922;12.198;2023-04-03T08:58:26;7.90;47.40
484;DHT22;228;48.922;12.198;2023-04-03T09:01:03;7.60;47.60
484;DHT22;228;48.922;12.198;2023-04-03T09:03:40;7.60;48.40
484;DHT22;228;48.922;12.198;2023-04-03T09:06:14;7.80;47.20
484;DHT22;228;48.922;12.198;2023-04-03T09:14:22;7.00;47.90
484;DHT22;228;48.922;12.198;2023-04-03T09:17:03;7.00;47.70
484;DHT22;228;48.922;12.198;2023-04-03T09:25:19;7.50;44.80
484;DHT22;228;48.922;12.198;2023-04-03T09:27:48;7.50;44.30
484;DHT22;228;48.922;12.198;2023-04-03T09:30:23;7.20;47.10
484;DHT22;228;48.922;12.198;2023-04-03T09:32:55;6.80;49.30
484;DHT22;228;48.922;12.198;2023-04-03T09:35:30;6.70;49.90
484;DHT22;228;48.922;12.198;2023-04-03T09:37:59;6.50;49.90
484;DHT22;228;48.922;12.198;2023-04-03T09:43:00;6.40;48.60
484;DHT22;228;48.922;12.198;2023-04-03T09:45:34;6.30;48.90
484;DHT22;228;48.922;12.198;2023-04-03T09:50:52;7.30;48.90
484;DHT22;228;48.922;12.198;2023-04-03T09:53:45;7.50;47.30
484;DHT22;228;48.922;12.198;2023-04-03T10:01:37;7.50;39.60
484;DHT22;228;48.922;12.198;2023-04-03T10:06:48;7.10;42.80
484;DHT22;228;48.922;12.198;2023-04-03T10:09:21;7.40;40.80
484;DHT22;228;48.922;12.198;2023-04-03T10:12:09;7.90;40.80
484;DHT22;228;48.922;12.198;2023-04-03T10:14:39;8.40;41.60
484;DHT22;228;48.922;12.198;2023-04-03T10:28:16;8.40;38.60
484;DHT22;228;48.922;12.198;2023-04-03T10:39:34;8.10;39.70
484;DHT22;228;48.922;12.198;2023-04-03T10:42:27;8.70;39.80
484;DHT22;228;48.922;12.198;2023-04-03T10:48:46;9.20;35.10
484;DHT22;228;48.922;12.198;2023-04-03T10:51:45;9.20;34.80
484;DHT22;228;48.922;12.198;2023-04-03T10:56:56;9.40;36.40
484;DHT22;228;48.922;12.198;2023-04-03T11:02:31;9.30;36.70
484;DHT22;228;48.922;12.198;2023-04-03T11:05:02;9.50;38.00
484;DHT22;228;48.922;12.198;2023-04-03T11:07:37;9.80;37.90
484;DHT22;228;48.922;12.198;2023-04-03T11:10:14;9.60;35.60
484;DHT22;228;48.922;12.198;2023-04-03T11:13:11;9.70;36.20
484;DHT22;228;48.922;12.198;2023-04-03T11:15:40;9.50;35.00
484;DHT22;228;48.922;12.198;2023-04-03T11:18:11;9.90;37.40
484;DHT22;228;48.922;12.198;2023-04-03T11:20:44;10.20;34.90
484;DHT22;228;48.922;12.198;2023-04-03T11:23:34;11.10;35.60
484;DHT22;228;48.922;12.198;2023-04-03T11:26:12;11.70;34.70
484;DHT22;228;48.922;12.198;2023-04-03T11:28:40;13.00;32.10
484;DHT22;228;48.922;12.198;2023-04-03T11:37:38;12.90;32.50
484;DHT22;228;48.922;12.198;2023-04-03T11:40:24;15.30;29.30
484;DHT22;228;48.922;12.198;2023-04-03T11:45:38;16.90;24.00
484;DHT22;228;48.922;12.198;2023-04-03T11:50:55;19.30;24.20
484;DHT22;228;48.922;12.198;2023-04-03T11:53:28;18.50;26.30
484;DHT22;228;48.922;12.198;2023-04-03T11:56:04;18.20;23.40
484;DHT22;228;48.922;12.198;2023-04-03T12:01:52;20.50;22.30
484;DHT22;228;48.922;12.198;2023-04-03T12:04:25;19.10;22.30
484;DHT22;228;48.922;12.198;2023-04-03T12:07:13;19.10;22.60
484;DHT22;228;48.922;12.198;2023-04-03T12:14:55;12.70;28.70
484;DHT22;228;48.922;12.198;2023-04-03T12:17:38;12.00;28.60
484;DHT22;228;48.922;12.198;2023-04-03T12:23:29;11.50;30.70
484;DHT22;228;48.922;12.198;2023-04-03T12:26:43;11.00;28.00
484;DHT22;228;48.922;12.198;2023-04-03T12:29:29;14.90;27.10
484;DHT22;228;48.922;12.198;2023-04-03T12:35:21;15.30;25.50
484;DHT22;228;48.922;12.198;2023-04-03T12:44:44;15.80;28.40
484;DHT22;228;48.922;12.198;2023-04-03T12:47:35;18.80;24.60
484;DHT22;228;48.922;12.198;2023-04-03T12:50:13;18.80;20.50
484;DHT22;228;48.922;12.198;2023-04-03T12:52:59;19.20;21.10
484;DHT22;228;48.922;12.198;2023-04-03T12:55:27;18.60;23.00
484;DHT22;228;48.922;12.198;2023-04-03T12:57:53;19.50;23.00
484;DHT22;228;48.922;12.198;2023-04-03T13:03:00;15.80;24.30
484;DHT22;228;48.922;12.198;2023-04-03T13:05:28;13.60;27.20
484;DHT22;228;48.922;12.198;2023-04-03T13:08:02;11.80;28.20
484;DHT22;228;48.922;12.198;2023-04-03T13:10:31;10.60;30.00
484;DHT22;228;48.922;12.198;2023-04-03T13:13:07;13.50;29.70
484;DHT22;228;48.922;12.198;2023-04-03T13:15:43;17.80;25.00
484;DHT22;228;48.922;12.198;2023-04-03T13:18:29;16.40;22.40
484;DHT22;228;48.922;12.198;2023-04-03T13:23:34;12.30;27.60
484;DHT22;228;48.922;12.198;2023-04-03T13:26:02;11.70;29.80
484;DHT22;228;48.922;12.198;2023-04-03T13:28:30;14.50;27.80
484;DHT22;228;48.922;12.198;2023-04-03T13:36:45;16.20;26.70
484;DHT22;228;48.922;12.198;2023-04-03T13:39:29;18.80;23.10
484;DHT22;228;48.922;12.198;2023-04-03T13:42:02;18.30;21.30
484;DHT22;228;48.922;12.198;2023-04-03T13:44:41;17.00;23.90
484;DHT22;228;48.922;12.198;2023-04-03T13:49:46;20.60;21.80
484;DHT22;228;48.922;12.198;2023-04-03T13:52:47;19.80;21.50
484;DHT22;228;48.922;12.198;2023-04-03T13:55:29;20.60;20.40
484;DHT22;228;48.922;12.198;2023-04-03T14:00:51;17.50;22.00
484;DHT22;228;48.922;12.198;2023-04-03T14:03:41;16.10;22.50
484;DHT22;228;48.922;12.198;2023-04-03T14:06:15;14.10;25.30
484;DHT22;228;48.922;12.198;2023-04-03T14:08:43;15.70;24.50
484;DHT22;228;48.922;12.198;2023-04-03T14:11:21;17.90;24.60
484;DHT22;228;48.922;12.198;2023-04-03T14:13:50;16.80;23.20
484;DHT22;228;48.922;12.198;2023-04-03T14:16:22;15.00;25.00
484;DHT22;228;48.922;12.198;2023-04-03T14:18:51;14.20;25.50
484;DHT22;228;48.922;12.198;2023-04-03T14:21:19;12.90;27.00
484;DHT22;228;48.922;12.198;2023-04-03T14:23:45;16.50;26.40
484;DHT22;228;48.922;12.198;2023-04-03T14:26:21;17.30;22.20
484;DHT22;228;48.922;12.198;2023-04-03T14:28:52;15.30;24.50
484;DHT22;228;48.922;12.198;2023-04-03T14:31:19;15.20;25.60
484;DHT22;228;48.922;12.198;2023-04-03T14:33:47;16.10;23.80
484;DHT22;228;48.922;12.198;2023-04-03T14:36:21;16.80;22.90
484;DHT22;228;48.922;12.198;2023-04-03T14:38:52;16.50;23.00
484;DHT22;228;48.922;12.198;2023-04-03T14:41:20;17.90;22.90
484;DHT22;228;48.922;12.198;2023-04-03T14:43:48;17.60;24.10
484;DHT22;228;48.922;12.198;2023-04-03T14:46:28;17.70;22.70
484;DHT22;228;48.922;12.198;2023-04-03T14:48:57;16.10;22.70
484;DHT22;228;48.922;12.198;2023-04-03T14:51:25;12.70;26.00
484;DHT22;228;48.922;12.198;2023-04-03T14:53:52;11.30;27.80
484;DHT22;228;48.922;12.198;2023-04-03T14:56:23;10.50;29.40
484;DHT22;228;48.922;12.198;2023-04-03T14:58:58;10.60;30.40
484;DHT22;228;48.922;12.198;2023-04-03T15:01:27;9.60;31.30
484;DHT22;228;48.922;12.198;2023-04-03T15:03:54;8.70;32.80
484;DHT22;228;48.922;12.198;2023-04-03T15:06:20;8.60;34.30
484;DHT22;228;48.922;12.198;2023-04-03T15:08:48;8.50;34.60
484;DHT22;228;48.922;12.198;2023-04-03T15:11:14;7.90;34.70
484;DHT22;228;48.922;12.198;2023-04-03T15:13:40;7.90;35.40
484;DHT22;228;48.922;12.198;2023-04-03T15:16:17;8.70;34.20
484;DHT22;228;48.922;12.198;2023-04-03T15:18:45;9.40;32.60
484;DHT22;228;48.922;12.198;2023-04-03T15:21:11;10.00;31.50
484;DHT22;228;48.922;12.198;2023-04-03T15:23:37;10.20;31.50
484;DHT22;228;48.922;12.198;2023-04-03T15:26:04;10.60;30.70
484;DHT22;228;48.922;12.198;2023-04-03T15:28:33;12.40;29.70
484;DHT22;228;48.922;12.198;2023-04-03T15:31:01;14.50;26.20
484;DHT22;228;48.922;12.198;2023-04-03T15:33:27;15.80;23.70
484;DHT22;228;48.922;12.198;2023-04-03T15:35:54;16.20;24.60
484;DHT22;228;48.922;12.198;2023-04-03T15:38:20;14.20;23.60
484;DHT22;228;48.922;12.198;2023-04-03T15:40:46;11.60;27.10
484;DHT22;228;48.922;12.198;2023-04-03T15:43:13;10.00;30.10
484;DHT22;228;48.922;12.198;2023-04-03T15:45:39;9.00;32.00
484;DHT22;228;48.922;12.198;2023-04-03T15:48:06;8.60;34.10
484;DHT22;228;48.922;12.198;2023-04-03T15:50:33;8.50;34.50
484;DHT22;228;48.922;12.198;2023-04-03T15:53:00;8.60;34.40
484;DHT22;228;48.922;12.198;2023-04-03T15:55:29;9.80;33.80
484;DHT22;228;48.922;12.198;2023-04-03T15:57:57;11.10;29.60
484;DHT22;228;48.922;12.198;2023-04-03T16:00:24;11.10;28.90
484;DHT22;228;48.922;12.198;2023-04-03T16:02:55;10.30;30.70
484;DHT22;228;48.922;12.198;2023-04-03T16:05:24;9.60;32.50
484;DHT22;228;48.922;12.198;2023-04-03T16:07:51;8.70;32.80
484;DHT22;228;48.922;12.198;2023-04-03T16:10:19;7.80;34.70
484;DHT22;228;48.922;12.198;2023-04-03T16:12:45;7.30;36.20
484;DHT22;228;48.922;12.198;2023-04-03T16:15:11;7.30;36.90
484;DHT22;228;48.922;12.198;2023-04-03T16:17:38;7.20;36.20
484;DHT22;228;48.922;12.198;2023-04-03T16:20:07;7.80;36.80
484;DHT22;228;48.922;12.198;2023-04-03T16:22:34;9.90;33.00
484;DHT22;228;48.922;12.198;2023-04-03T16:25:00;11.30;30.80
484;DHT22;228;48.922;12.198;2023-04-03T16:27:26;12.20;28.20
484;DHT22;228;48.922;12.198;2023-04-03T16:29:59;12.10;27.90
484;DHT22;228;48.922;12.198;2023-04-03T16:32:28;11.60;28.40
484;DHT22;228;48.922;12.198;2023-04-03T16:34:55;11.40;28.60
484;DHT22;228;48.922;12.198;2023-04-03T16:37:22;10.60;29.60
484;DHT22;228;48.922;12.198;2023-04-03T16:39:48;10.20;30.00
484;DHT22;228;48.922;12.198;2023-04-03T16:42:14;9.10;33.10
484;DHT22;228;48.922;12.198;2023-04-03T16:44:40;9.00;35.30
484;DHT22;228;48.922;12.198;2023-04-03T16:47:07;8.60;35.70
484;DHT22;228;48.922;12.198;2023-04-03T16:49:33;8.50;36.20
484;DHT22;228;48.922;12.198;2023-04-03T16:52:01;8.40;35.10
484;DHT22;228;48.922;12.198;2023-04-03T16:54:28;9.00;35.20
484;DHT22;228;48.922;12.198;2023-04-03T16:56:55;9.50;34.10
484;DHT22;228;48.922;12.198;2023-04-03T16:59:21;8.10;33.40
484;DHT22;228;48.922;12.198;2023-04-03T17:01:47;7.60;35.20
484;DHT22;228;48.922;12.198;2023-04-03T17:04:13;6.80;36.20
484;DHT22;228;48.922;12.198;2023-04-03T17:06:40;6.30;38.70
484;DHT22;228;48.922;12.198;2023-04-03T17:09:06;5.90;38.80
484;DHT22;228;48.922;12.198;2023-04-03T17:11:35;5.40;40.80
484;DHT22;228;48.922;12.198;2023-04-03T17:14:02;5.20;42.30
484;DHT22;228;48.922;12.198;2023-04-03T17:16:29;4.80;42.60
484;DHT22;228;48.922;12.198;2023-04-03T17:18:56;4.50;43.60
484;DHT22;228;48.922;12.198;2023-04-03T17:21:22;4.50;43.90
484;DHT22;228;48.922;12.198;2023-04-03T17:23:55;4.60;43.20
484;DHT22;228;48.922;12.198;2023-04-03T17:26:24;4.70;43.50
484;DHT22;228;48.922;12.198;2023-04-03T17:28:51;4.90;43.20
484;DHT22;228;48.922;12.198;2023-04-03T17:31:18;4.80;43.20
484;DHT22;228;48.922;12.198;2023-04-03T17:33:44;4.80;43.00
484;DHT22;228;48.922;12.198;2023-04-03T17:36:11;4.50;44.10
484;DHT22;228;48.922;12.198;2023-04-03T17:38:37;4.40;44.90
484;DHT22;228;48.922;12.198;2023-04-03T17:41:06;4.20;44.60
484;DHT22;228;48.922;12.198;2023-04-03T17:43:33;4.00;45.40
484;DHT22;228;48.922;12.198;2023-04-03T17:46:02;4.10;45.70
484;DHT22;228;48.922;12.198;2023-04-03T17:48:30;4.00;46.30
484;DHT22;228;48.922;12.198;2023-04-03T17:50:57;3.90;46.90
484;DHT22;228;48.922;12.198;2023-04-03T17:53:24;4.00;46.30
484;DHT22;228;48.922;12.198;2023-04-03T17:55:52;3.60;45.60
484;DHT22;228;48.922;12.198;2023-04-03T17:58:18;3.50;45.80
484;DHT22;228;48.922;12.198;2023-04-03T18:00:44;3.40;46.10
484;DHT22;228;48.922;12.198;2023-04-03T18:03:10;3.40;46.40
484;DHT22;228;48.922;12.198;2023-04-03T18:05:36;3.60;46.00
484;DHT22;228;48.922;12.198;2023-04-03T18:08:03;3.50;46.10
484;DHT22;228;48.922;12.198;2023-04-03T18:10:29;3.60;45.60
484;DHT22;228;48.922;12.198;2023-04-03T18:12:56;3.60;45.80
484;DHT22;228;48.922;12.198;2023-04-03T18:15:23;3.60;46.00
484;DHT22;228;48.922;12.198;2023-04-03T18:17:50;3.60;45.80
484;DHT22;228;48.922;12.198;2023-04-03T18:20:22;3.40;46.90
484;DHT22;228;48.922;12.198;2023-04-03T18:22:49;3.30;47.30
484;DHT22;228;48.922;12.198;2023-04-03T18:25:16;3.40;47.50
484;DHT22;228;48.922;12.198;2023-04-03T18:27:43;3.40;47.90
484;DHT22;228;48.922;12.198;2023-04-03T18:30:13;3.50;48.00
484;DHT22;228;48.922;12.198;2023-04-03T18:32:41;3.80;47.60
484;DHT22;228;48.922;12.198;2023-04-03T18:35:08;4.00;46.80
484;DHT22;228;48.922;12.198;2023-04-03T18:37:34;3.60;47.10
484;DHT22;228;48.922;12.198;2023-04-03T18:40:00;3.70;47.20
484;DHT22;228;48.922;12.198;2023-04-03T18:42:26;3.80;47.40
484;DHT22;228;48.922;12.198;2023-04-03T18:44:55;3.70;46.70
484;DHT22;228;48.922;12.198;2023-04-03T18:47:23;3.50;48.00